createdAt,value
2023-03-22T00:00:04.312Z,622.95
2023-03-22T00:01:04.288Z,622.97
2023-03-22T00:02:04.296Z,623.00
2023-03-22T00:03:04.379Z,623.00
2023-03-22T00:04:04.261Z,622.99
2023-03-22T00:05:04.241Z,623.00
2023-03-22T00:06:04.233Z,623.03
2023-03-22T00:07:04.210Z,623.04
2023-03-22T00:08:04.199Z,623.02
2023-03-22T00:09:04.184Z,623.03
2023-03-22T00:10:04.196Z,623.02
2023-03-22T00:11:04.170Z,623.03
2023-03-22T00:12:04.161Z,623.03
2023-03-22T00:13:04.167Z,623.04
2023-03-22T00:14:04.156Z,623.05
2023-03-22T00:15:04.143Z,623.07
2023-03-22T00:16:04.136Z,623.07
2023-03-22T00:17:04.104Z,623.04
2023-03-22T00:18:04.090Z,623.01
2023-03-22T00:19:04.109Z,623.00
2023-03-22T00:20:04.073Z,622.98
2023-03-22T00:21:04.045Z,622.95
2023-03-22T00:22:04.038Z,622.95
2023-03-22T00:23:04.019Z,622.96
2023-03-22T00:24:04.025Z,622.98
2023-03-22T00:25:04.007Z,623.03
2023-03-22T00:26:03.995Z,623.00
2023-03-22T00:27:03.974Z,623.00
2023-03-22T00:28:03.971Z,622.99
2023-03-22T00:29:03.966Z,622.98
2023-03-22T00:30:03.947Z,623.00
2023-03-22T00:31:03.963Z,622.99
2023-03-22T00:32:03.930Z,623.02
2023-03-22T00:33:03.911Z,622.98
2023-03-22T00:34:03.933Z,622.90
2023-03-22T00:35:03.912Z,622.90
2023-03-22T00:36:03.903Z,622.94
2023-03-22T00:37:03.976Z,622.97
2023-03-22T00:38:03.872Z,622.95
2023-03-22T00:39:03.854Z,622.94
2023-03-22T00:40:03.850Z,622.96
2023-03-22T00:41:03.828Z,623.00
2023-03-22T00:42:03.820Z,622.98
2023-03-22T00:43:11.203Z,623.00
2023-03-22T00:44:03.840Z,622.95
2023-03-22T00:45:03.810Z,622.96
2023-03-22T00:46:03.811Z,622.95
2023-03-22T00:47:03.782Z,622.93
2023-03-22T00:48:03.778Z,622.94
2023-03-22T00:49:03.762Z,622.92
2023-03-22T00:50:03.726Z,622.95
2023-03-22T00:51:03.757Z,622.94
2023-03-22T00:52:03.722Z,622.94
2023-03-22T00:53:03.689Z,622.90
2023-03-22T00:54:03.692Z,622.94
2023-03-22T00:55:03.670Z,622.92
2023-03-22T00:56:03.663Z,622.94
2023-03-22T00:57:03.649Z,622.95
2023-03-22T00:58:03.643Z,622.94
2023-03-22T00:59:03.638Z,622.95
2023-03-22T01:00:03.613Z,622.98
2023-03-22T01:01:03.691Z,622.98
2023-03-22T01:02:03.606Z,622.98
2023-03-22T01:03:03.590Z,622.99
2023-03-22T01:04:03.595Z,622.98
2023-03-22T01:05:03.566Z,622.95
2023-03-22T01:06:03.569Z,622.98
2023-03-22T01:07:03.596Z,622.98
2023-03-22T01:08:03.540Z,622.98
2023-03-22T01:09:03.525Z,622.97
2023-03-22T01:10:03.504Z,622.94
2023-03-22T01:11:03.491Z,622.97
2023-03-22T01:12:03.489Z,622.98
2023-03-22T01:13:03.515Z,622.97
2023-03-22T01:14:03.478Z,622.95
2023-03-22T01:15:03.438Z,622.90
2023-03-22T01:16:03.531Z,622.92
2023-03-22T01:17:03.423Z,622.94
2023-03-22T01:18:03.411Z,622.92
2023-03-22T01:19:03.449Z,622.92
2023-03-22T01:20:03.391Z,622.93
2023-03-22T01:21:03.389Z,622.94
2023-03-22T01:22:03.362Z,622.93
2023-03-22T01:23:03.382Z,622.93
2023-03-22T01:24:03.343Z,622.99
2023-03-22T01:25:03.347Z,623.00
2023-03-22T01:26:03.329Z,623.02
2023-03-22T01:27:03.324Z,623.02
2023-03-22T01:28:03.292Z,623.03
2023-03-22T01:29:03.289Z,622.99
2023-03-22T01:30:03.280Z,622.98
2023-03-22T01:31:03.315Z,622.97
2023-03-22T01:32:03.282Z,622.99
2023-03-22T01:33:03.276Z,623.00
2023-03-22T01:34:03.248Z,623.01
2023-03-22T01:35:03.214Z,623.01
2023-03-22T01:36:03.242Z,622.99
2023-03-22T01:37:03.192Z,623.00
2023-03-22T01:38:03.200Z,623.02
2023-03-22T01:39:03.193Z,623.04
2023-03-22T01:40:03.171Z,623.05
2023-03-22T01:41:03.180Z,623.06
2023-03-22T01:42:03.177Z,623.04
2023-03-22T01:43:03.162Z,623.03
2023-03-22T01:44:03.129Z,623.02
2023-03-22T01:45:03.107Z,623.02
2023-03-22T01:46:03.144Z,623.03
2023-03-22T01:47:03.100Z,623.02
2023-03-22T01:48:03.154Z,623.00
2023-03-22T01:49:03.090Z,623.00
2023-03-22T01:50:03.086Z,623.00
2023-03-22T01:51:03.076Z,623.01
2023-03-22T01:52:03.036Z,623.03
2023-03-22T01:53:03.020Z,623.03
2023-03-22T01:54:03.020Z,623.03
2023-03-22T01:55:03.020Z,623.02
2023-03-22T01:56:03.006Z,623.02
2023-03-22T01:57:02.980Z,622.98
2023-03-22T01:58:02.982Z,622.98
2023-03-22T01:59:02.948Z,623.02
2023-03-22T02:00:02.962Z,623.02
2023-03-22T02:01:03.094Z,623.02
2023-03-22T02:02:02.947Z,623.04
2023-03-22T02:03:03.027Z,623.00
2023-03-22T02:04:02.916Z,622.96
2023-03-22T02:05:02.902Z,622.99
2023-03-22T02:06:02.900Z,623.01
2023-03-22T02:07:02.870Z,622.99
2023-03-22T02:08:02.852Z,622.93
2023-03-22T02:09:02.840Z,622.99
2023-03-22T02:10:02.825Z,622.99
2023-03-22T02:11:02.868Z,623.01
2023-03-22T02:12:02.824Z,623.03
2023-03-22T02:13:02.793Z,623.06
2023-03-22T02:14:02.788Z,623.06
2023-03-22T02:15:02.783Z,623.03
2023-03-22T02:16:02.804Z,623.01
2023-03-22T02:17:02.766Z,623.03
2023-03-22T02:18:02.741Z,623.04
2023-03-22T02:19:02.725Z,623.05
2023-03-22T02:20:02.710Z,623.01
2023-03-22T02:21:02.727Z,622.98
2023-03-22T02:22:02.713Z,622.98
2023-03-22T02:23:02.688Z,623.01
2023-03-22T02:24:02.700Z,623.01
2023-03-22T02:25:02.663Z,622.98
2023-03-22T02:26:02.669Z,623.00
2023-03-22T02:27:02.666Z,623.00
2023-03-22T02:28:02.633Z,623.04
2023-03-22T02:29:02.644Z,623.06
2023-03-22T02:30:02.611Z,623.03
2023-03-22T02:31:02.625Z,623.00
2023-03-22T02:32:02.582Z,623.00
2023-03-22T02:33:02.602Z,623.02
2023-03-22T02:34:02.587Z,623.03
2023-03-22T02:35:02.571Z,623.04
2023-03-22T02:36:02.548Z,623.03
2023-03-22T02:37:02.553Z,623.03
2023-03-22T02:38:02.524Z,623.02
2023-03-22T02:39:02.507Z,623.04
2023-03-22T02:40:02.491Z,623.06
2023-03-22T02:41:02.502Z,623.04
2023-03-22T02:42:02.478Z,623.04
2023-03-22T02:43:02.496Z,623.05
2023-03-22T02:44:09.983Z,623.07
2023-03-22T02:45:02.457Z,623.08
2023-03-22T02:46:02.437Z,623.05
2023-03-22T02:47:02.413Z,623.06
2023-03-22T02:48:02.481Z,623.04
2023-03-22T02:49:02.392Z,623.03
2023-03-22T02:50:02.397Z,623.00
2023-03-22T02:51:02.384Z,622.99
2023-03-22T02:52:02.355Z,623.01
2023-03-22T02:53:02.362Z,623.00
2023-03-22T02:54:02.334Z,623.01
2023-03-22T02:55:02.338Z,623.00
2023-03-22T02:56:02.320Z,623.00
2023-03-22T02:57:02.315Z,622.99
2023-03-22T02:58:02.324Z,623.01
2023-03-22T02:59:02.350Z,622.99
2023-03-22T03:00:02.324Z,622.99
2023-03-22T03:01:02.319Z,623.01
2023-03-22T03:02:02.288Z,623.00
2023-03-22T03:03:02.235Z,622.99
2023-03-22T03:04:02.222Z,622.99
2023-03-22T03:05:02.236Z,622.99
2023-03-22T03:06:02.212Z,623.00
2023-03-22T03:07:02.194Z,623.00
2023-03-22T03:08:02.182Z,622.97
2023-03-22T03:09:02.170Z,622.99
2023-03-22T03:10:02.181Z,623.00
2023-03-22T03:11:02.147Z,623.00
2023-03-22T03:12:02.136Z,623.01
2023-03-22T03:13:02.144Z,623.00
2023-03-22T03:14:02.126Z,623.02
2023-03-22T03:15:02.156Z,623.02
2023-03-22T03:16:02.139Z,623.03
2023-03-22T03:17:02.081Z,622.98
2023-03-22T03:18:02.086Z,622.97
2023-03-22T03:19:02.081Z,622.97
2023-03-22T03:20:02.047Z,622.99
2023-03-22T03:21:02.040Z,623.02
2023-03-22T03:22:02.027Z,623.02
2023-03-22T03:23:02.034Z,623.02
2023-03-22T03:24:02.008Z,623.03
2023-03-22T03:25:01.994Z,623.04
2023-03-22T03:26:01.980Z,623.03
2023-03-22T03:27:01.970Z,623.02
2023-03-22T03:28:01.955Z,623.00
2023-03-22T03:29:01.961Z,623.02
2023-03-22T03:30:01.945Z,623.02
2023-03-22T03:31:01.944Z,623.02
2023-03-22T03:32:01.916Z,623.02
2023-03-22T03:33:01.904Z,623.02
2023-03-22T03:34:01.914Z,623.03
2023-03-22T03:35:01.895Z,623.05
2023-03-22T03:36:01.884Z,623.02
2023-03-22T03:37:01.878Z,623.04
2023-03-22T03:38:01.846Z,623.05
2023-03-22T03:39:01.842Z,623.03
2023-03-22T03:40:01.833Z,623.03
2023-03-22T03:41:01.822Z,623.05
2023-03-22T03:42:01.814Z,623.02
2023-03-22T03:43:01.806Z,623.06
2023-03-22T03:44:01.802Z,623.05
2023-03-22T03:45:01.782Z,623.04
2023-03-22T03:46:01.834Z,623.04
2023-03-22T03:47:01.770Z,623.04
2023-03-22T03:48:01.827Z,623.03
2023-03-22T03:49:01.739Z,623.01
2023-03-22T03:50:01.734Z,623.01
2023-03-22T03:51:01.702Z,623.02
2023-03-22T03:52:01.703Z,623.02
2023-03-22T03:53:01.704Z,623.02
2023-03-22T03:54:01.668Z,623.01
2023-03-22T03:55:01.668Z,623.01
2023-03-22T03:56:01.642Z,623.03
2023-03-22T03:57:03.837Z,623.03
2023-03-22T03:58:02.225Z,623.03
2023-03-22T03:59:01.632Z,622.99
2023-03-22T04:00:01.636Z,622.99
2023-03-22T04:01:01.588Z,623.02
2023-03-22T04:02:01.638Z,623.03
2023-03-22T04:03:01.614Z,623.05
2023-03-22T04:04:01.600Z,623.05
2023-03-22T04:05:01.579Z,623.07
2023-03-22T04:06:01.536Z,623.06
2023-03-22T04:07:01.533Z,623.06
2023-03-22T04:08:01.508Z,623.01
2023-03-22T04:09:01.504Z,623.02
2023-03-22T04:10:01.502Z,623.00
2023-03-22T04:11:01.482Z,623.01
2023-03-22T04:12:01.461Z,623.01
2023-03-22T04:13:01.455Z,623.02
2023-03-22T04:14:01.467Z,623.01
2023-03-22T04:15:01.450Z,623.02
2023-03-22T04:16:01.418Z,623.02
2023-03-22T04:17:01.479Z,623.03
2023-03-22T04:18:01.397Z,623.02
2023-03-22T04:19:01.420Z,623.00
2023-03-22T04:20:01.393Z,623.02
2023-03-22T04:21:01.433Z,623.04
2023-03-22T04:22:01.352Z,623.03
2023-03-22T04:23:01.362Z,623.04
2023-03-22T04:24:01.338Z,623.05
2023-03-22T04:25:01.320Z,623.06
2023-03-22T04:26:01.306Z,623.05
2023-03-22T04:27:01.309Z,623.05
2023-03-22T04:28:01.315Z,623.03
2023-03-22T04:29:01.277Z,623.04
2023-03-22T04:30:01.272Z,623.03
2023-03-22T04:31:01.280Z,623.04
2023-03-22T04:32:01.255Z,623.04
2023-03-22T04:33:01.259Z,623.05
2023-03-22T04:34:01.223Z,623.04
2023-03-22T04:35:01.256Z,623.04
2023-03-22T04:36:04.082Z,623.01
2023-03-22T04:37:01.184Z,623.03
2023-03-22T04:38:01.208Z,623.01
2023-03-22T04:39:01.178Z,623.03
2023-03-22T04:40:01.170Z,623.02
2023-03-22T04:41:01.187Z,622.98
2023-03-22T04:42:01.139Z,622.99
2023-03-22T04:43:01.150Z,622.99
2023-03-22T04:44:01.105Z,622.98
2023-03-22T04:45:08.132Z,623.01
2023-03-22T04:46:01.145Z,623.00
2023-03-22T04:47:01.073Z,622.99
2023-03-22T04:48:01.127Z,622.98
2023-03-22T04:49:01.052Z,622.95
2023-03-22T04:50:01.055Z,622.98
2023-03-22T04:51:01.071Z,622.96
2023-03-22T04:52:01.031Z,622.97
2023-03-22T04:53:01.023Z,622.94
2023-03-22T04:54:01.003Z,622.94
2023-03-22T04:55:00.999Z,622.96
2023-03-22T04:56:00.986Z,622.99
2023-03-22T04:57:00.973Z,623.01
2023-03-22T04:58:00.973Z,623.01
2023-03-22T04:59:00.942Z,622.99
2023-03-22T05:00:00.947Z,622.96
2023-03-22T05:01:00.918Z,622.96
2023-03-22T05:02:01.017Z,622.96
2023-03-22T05:03:00.967Z,623.00
2023-03-22T05:04:00.891Z,623.02
2023-03-22T05:05:00.875Z,623.02
2023-03-22T05:06:00.864Z,623.02
2023-03-22T05:07:00.901Z,623.04
2023-03-22T05:08:00.850Z,623.03
2023-03-22T05:09:00.838Z,623.03
2023-03-22T05:10:00.818Z,623.02
2023-03-22T05:11:00.807Z,623.01
2023-03-22T05:12:00.815Z,623.02
2023-03-22T05:13:00.785Z,623.01
2023-03-22T05:14:00.769Z,623.02
2023-03-22T05:15:00.787Z,623.02
2023-03-22T05:16:00.808Z,623.03
2023-03-22T05:17:00.754Z,623.01
2023-03-22T05:18:00.724Z,623.02
2023-03-22T05:19:00.733Z,623.03
2023-03-22T05:20:00.749Z,623.04
2023-03-22T05:21:00.721Z,623.04
2023-03-22T05:22:00.680Z,623.03
2023-03-22T05:23:00.785Z,623.00
2023-03-22T05:24:00.676Z,623.01
2023-03-22T05:25:00.665Z,623.01
2023-03-22T05:26:00.656Z,623.01
2023-03-22T05:27:01.343Z,623.02
2023-03-22T05:28:00.610Z,623.01
2023-03-22T05:29:00.613Z,623.00
2023-03-22T05:30:00.594Z,622.98
2023-03-22T05:31:00.612Z,623.01
2023-03-22T05:32:00.573Z,623.00
2023-03-22T05:33:00.580Z,623.01
2023-03-22T05:34:00.563Z,622.99
2023-03-22T05:35:00.548Z,622.98
2023-03-22T05:36:00.541Z,623.00
2023-03-22T05:37:00.533Z,622.99
2023-03-22T05:38:00.508Z,622.96
2023-03-22T05:39:00.524Z,622.97
2023-03-22T05:40:00.489Z,622.99
2023-03-22T05:41:00.493Z,623.02
2023-03-22T05:42:00.472Z,623.02
2023-03-22T05:43:00.462Z,623.01
2023-03-22T05:44:00.446Z,623.01
2023-03-22T05:45:00.457Z,623.02
2023-03-22T05:46:00.419Z,623.00
2023-03-22T05:47:00.515Z,623.01
2023-03-22T05:48:00.447Z,623.01
2023-03-22T05:49:00.388Z,623.03
2023-03-22T05:50:00.388Z,623.03
2023-03-22T05:51:00.399Z,623.02
2023-03-22T05:52:00.398Z,623.03
2023-03-22T05:53:00.345Z,623.03
2023-03-22T05:54:00.356Z,623.02
2023-03-22T05:55:00.346Z,622.99
2023-03-22T05:56:00.325Z,622.97
2023-03-22T05:57:00.315Z,622.95
2023-03-22T05:58:00.313Z,622.94
2023-03-22T05:59:00.285Z,622.98
2023-03-22T06:00:00.269Z,623.01
2023-03-22T06:01:00.270Z,623.03
2023-03-22T06:02:00.272Z,623.05
2023-03-22T06:03:00.335Z,623.05
2023-03-22T06:04:00.238Z,623.03
2023-03-22T06:05:00.222Z,623.02
2023-03-22T06:06:00.208Z,623.03
2023-03-22T06:07:00.201Z,623.03
2023-03-22T06:08:00.190Z,623.01
2023-03-22T06:09:10.645Z,622.97
2023-03-22T06:10:00.175Z,622.97
2023-03-22T06:11:00.172Z,622.98
2023-03-22T06:12:00.150Z,623.00
2023-03-22T06:13:00.211Z,623.03
2023-03-22T06:14:00.125Z,623.04
2023-03-22T06:15:00.162Z,623.04
2023-03-22T06:16:00.128Z,623.00
2023-03-22T06:17:00.102Z,622.98
2023-03-22T06:18:00.087Z,623.01
2023-03-22T06:19:00.064Z,623.01
2023-03-22T06:20:00.056Z,623.01
2023-03-22T06:21:00.042Z,623.02
2023-03-22T06:22:00.033Z,623.00
2023-03-22T06:23:00.027Z,622.99
2023-03-22T06:24:00.045Z,623.01
2023-03-22T06:24:59.991Z,623.02
2023-03-22T06:26:00.044Z,623.03
2023-03-22T06:26:59.990Z,623.02
2023-03-22T06:27:59.974Z,623.04
2023-03-22T06:29:00.021Z,623.02
2023-03-22T06:29:59.938Z,623.04
2023-03-22T06:30:59.990Z,623.06
2023-03-22T06:31:59.920Z,623.09
2023-03-22T06:32:59.916Z,623.11
2023-03-22T06:33:59.906Z,623.01
2023-03-22T06:35:01.226Z,623.03
2023-03-22T06:35:59.877Z,623.02
2023-03-22T06:36:59.852Z,622.98
2023-03-22T06:37:59.858Z,622.98
2023-03-22T06:38:59.831Z,622.99
2023-03-22T06:39:59.830Z,623.01
2023-03-22T06:41:01.157Z,623.02
2023-03-22T06:41:59.812Z,623.02
2023-03-22T06:43:02.927Z,623.01
2023-03-22T06:43:59.823Z,623.02
2023-03-22T06:44:59.763Z,623.01
2023-03-22T06:46:07.688Z,623.03
2023-03-22T06:46:59.741Z,623.03
2023-03-22T06:47:59.760Z,623.04
2023-03-22T06:48:59.774Z,623.02
2023-03-22T06:49:59.710Z,623.02
2023-03-22T06:50:59.734Z,623.03
2023-03-22T06:51:59.734Z,623.01
2023-03-22T06:52:59.688Z,623.02
2023-03-22T06:53:59.669Z,622.96
2023-03-22T06:54:59.687Z,622.96
2023-03-22T06:55:59.673Z,622.99
2023-03-22T06:56:59.633Z,622.98
2023-03-22T06:57:59.631Z,623.00
2023-03-22T06:58:59.633Z,623.03
2023-03-22T06:59:59.640Z,623.05
2023-03-22T07:00:59.676Z,623.05
2023-03-22T07:01:59.574Z,623.06
2023-03-22T07:02:59.582Z,623.06
2023-03-22T07:03:59.663Z,623.08
2023-03-22T07:04:59.555Z,623.07
2023-03-22T07:05:59.561Z,623.07
2023-03-22T07:06:59.557Z,623.05
2023-03-22T07:07:59.557Z,623.04
2023-03-22T07:08:59.551Z,623.05
2023-03-22T07:09:59.551Z,623.05
2023-03-22T07:10:59.592Z,623.05
2023-03-22T07:11:59.491Z,623.05
2023-03-22T07:12:59.476Z,623.06
2023-03-22T07:13:59.479Z,623.05
2023-03-22T07:14:59.523Z,622.99
2023-03-22T07:16:01.370Z,622.99
2023-03-22T07:17:00.463Z,622.91
2023-03-22T07:17:59.426Z,622.96
2023-03-22T07:18:59.450Z,622.98
2023-03-22T07:19:59.429Z,623.02
2023-03-22T07:20:59.463Z,623.02
2023-03-22T07:21:59.372Z,623.05
2023-03-22T07:22:59.446Z,623.06
2023-03-22T07:23:59.368Z,623.05
2023-03-22T07:25:01.592Z,623.06
2023-03-22T07:25:59.511Z,623.05
2023-03-22T07:26:59.402Z,623.07
2023-03-22T07:27:59.361Z,623.07
2023-03-22T07:28:59.302Z,623.09
2023-03-22T07:29:59.299Z,623.07
2023-03-22T07:30:59.294Z,623.10
2023-03-22T07:31:59.618Z,623.13
2023-03-22T07:32:59.324Z,623.11
2023-03-22T07:33:59.252Z,623.11
2023-03-22T07:34:59.250Z,623.03
2023-03-22T07:35:59.302Z,623.01
2023-03-22T07:36:59.572Z,623.01
2023-03-22T07:38:00.194Z,623.02
2023-03-22T07:38:59.193Z,623.00
2023-03-22T07:39:59.177Z,623.04
2023-03-22T07:40:59.196Z,623.06
2023-03-22T07:41:59.139Z,623.06
2023-03-22T07:42:59.221Z,623.05
2023-03-22T07:44:11.435Z,623.06
2023-03-22T07:45:00.229Z,623.06
2023-03-22T07:45:59.206Z,623.05
2023-03-22T07:46:59.249Z,623.05
2023-03-22T07:47:59.490Z,623.08
2023-03-22T07:48:59.195Z,623.09
2023-03-22T07:49:59.101Z,623.08
2023-03-22T07:50:59.109Z,623.07
2023-03-22T07:51:59.040Z,623.02
2023-03-22T07:52:59.031Z,623.05
2023-03-22T07:53:59.032Z,623.08
2023-03-22T07:54:59.000Z,623.08
2023-03-22T07:55:59.068Z,623.12
2023-03-22T07:56:59.033Z,623.13
2023-03-22T07:57:59.012Z,623.14
2023-03-22T07:58:59.101Z,624.20
2023-03-22T07:59:58.959Z,623.65
2023-03-22T08:00:59.013Z,623.05
2023-03-22T08:01:58.948Z,623.04
2023-03-22T08:02:59.037Z,623.05
2023-03-22T08:03:58.962Z,623.07
2023-03-22T08:04:58.935Z,623.04
2023-03-22T08:05:58.948Z,622.95
2023-03-22T08:06:58.874Z,623.00
2023-03-22T08:07:58.995Z,623.02
2023-03-22T08:08:58.850Z,623.03
2023-03-22T08:09:59.315Z,622.99
2023-03-22T08:10:58.864Z,622.96
2023-03-22T08:11:58.863Z,622.98
2023-03-22T08:12:58.808Z,623.02
2023-03-22T08:13:58.812Z,623.03
2023-03-22T08:14:58.786Z,623.06
2023-03-22T08:15:58.833Z,623.07
2023-03-22T08:16:58.791Z,623.06
2023-03-22T08:17:58.849Z,623.06
2023-03-22T08:18:58.803Z,623.08
2023-03-22T08:19:58.748Z,623.14
2023-03-22T08:20:58.913Z,623.22
2023-03-22T08:21:58.702Z,623.25
2023-03-22T08:22:58.678Z,623.45
2023-03-22T08:23:58.744Z,623.67
2023-03-22T08:24:58.742Z,625.93
2023-03-22T08:25:58.693Z,628.52
2023-03-22T08:26:58.746Z,627.24
2023-03-22T08:27:58.635Z,625.23
2023-03-22T08:28:58.609Z,623.56
2023-03-22T08:29:58.779Z,623.19
2023-03-22T08:30:58.643Z,623.21
2023-03-22T08:31:58.711Z,623.05
2023-03-22T08:32:58.566Z,623.20
2023-03-22T08:33:58.593Z,623.14
2023-03-22T08:34:58.624Z,623.01
2023-03-22T08:35:58.652Z,623.02
2023-03-22T08:36:58.551Z,623.01
2023-03-22T08:37:58.559Z,623.04
2023-03-22T08:38:58.531Z,623.05
2023-03-22T08:39:58.514Z,623.07
2023-03-22T08:40:58.499Z,623.32
2023-03-22T08:41:58.472Z,624.88
2023-03-22T08:42:58.504Z,623.83
2023-03-22T08:43:58.446Z,623.77
2023-03-22T08:44:58.449Z,623.84
2023-03-22T08:45:58.514Z,624.17
2023-03-22T08:47:06.139Z,624.47
2023-03-22T08:47:58.564Z,626.58
2023-03-22T08:48:58.809Z,624.52
2023-03-22T08:49:58.389Z,623.06
2023-03-22T08:50:58.417Z,623.11
2023-03-22T08:51:58.435Z,623.20
2023-03-22T08:52:58.369Z,624.30
2023-03-22T08:53:58.378Z,627.27
2023-03-22T08:54:58.355Z,626.74
2023-03-22T08:55:58.343Z,623.13
2023-03-22T08:56:58.342Z,623.24
2023-03-22T08:57:58.286Z,624.35
2023-03-22T08:58:58.270Z,625.63
2023-03-22T08:59:58.332Z,627.71
2023-03-22T09:00:58.475Z,628.75
2023-03-22T09:01:58.489Z,627.14
2023-03-22T09:02:58.230Z,625.07
2023-03-22T09:03:58.322Z,627.44
2023-03-22T09:04:58.210Z,630.43
2023-03-22T09:05:58.238Z,630.44
2023-03-22T09:06:58.255Z,629.57
2023-03-22T09:08:05.851Z,628.09
2023-03-22T09:08:58.179Z,626.70
2023-03-22T09:09:58.182Z,625.81
2023-03-22T09:10:58.171Z,624.29
2023-03-22T09:11:58.164Z,624.50
2023-03-22T09:12:58.135Z,623.79
2023-03-22T09:13:58.140Z,623.43
2023-03-22T09:14:58.095Z,623.87
2023-03-22T09:15:58.146Z,626.20
2023-03-22T09:16:58.083Z,627.40
2023-03-22T09:17:58.076Z,627.42
2023-03-22T09:18:58.102Z,626.50
2023-03-22T09:20:11.586Z,627.41
2023-03-22T09:20:58.072Z,628.07
2023-03-22T09:21:58.053Z,628.13
2023-03-22T09:22:58.033Z,630.33
2023-03-22T09:23:58.001Z,632.13
2023-03-22T09:24:58.226Z,635.11
2023-03-22T09:25:58.024Z,635.05
2023-03-22T09:26:57.961Z,634.77
2023-03-22T09:27:58.087Z,632.97
2023-03-22T09:28:58.038Z,630.80
2023-03-22T09:29:57.952Z,630.31
2023-03-22T09:30:57.939Z,631.00
2023-03-22T09:31:57.918Z,631.39
2023-03-22T09:32:57.944Z,629.58
2023-03-22T09:33:57.908Z,630.29
2023-03-22T09:34:57.881Z,630.20
2023-03-22T09:35:57.960Z,628.13
2023-03-22T09:36:58.622Z,627.54
2023-03-22T09:37:57.840Z,629.83
2023-03-22T09:38:57.844Z,631.67
2023-03-22T09:39:57.839Z,634.01
2023-03-22T09:40:57.804Z,634.10
2023-03-22T09:41:57.806Z,635.99
2023-03-22T09:42:57.780Z,637.56
2023-03-22T09:43:57.764Z,636.33
2023-03-22T09:44:57.777Z,636.38
2023-03-22T09:45:57.782Z,638.64
2023-03-22T09:46:57.757Z,637.37
2023-03-22T09:47:57.773Z,635.03
2023-03-22T09:48:57.727Z,635.34
2023-03-22T09:49:57.704Z,636.25
2023-03-22T09:50:57.720Z,635.87
2023-03-22T09:51:57.745Z,636.94
2023-03-22T09:52:57.694Z,636.23
2023-03-22T09:53:57.709Z,632.17
2023-03-22T09:54:57.674Z,632.81
2023-03-22T09:55:57.657Z,635.26
2023-03-22T09:56:57.675Z,634.04
2023-03-22T09:57:57.635Z,634.55
2023-03-22T09:58:57.648Z,633.71
2023-03-22T09:59:57.639Z,635.17
2023-03-22T10:00:57.766Z,634.49
2023-03-22T10:01:57.832Z,635.00
2023-03-22T10:02:57.615Z,636.14
2023-03-22T10:03:57.706Z,637.36
2023-03-22T10:04:57.537Z,638.88
2023-03-22T10:05:57.531Z,637.81
2023-03-22T10:06:57.539Z,638.13
2023-03-22T10:07:57.550Z,637.75
2023-03-22T10:08:57.524Z,641.28
2023-03-22T10:09:57.477Z,643.38
2023-03-22T10:10:57.504Z,646.47
2023-03-22T10:11:57.493Z,646.34
2023-03-22T10:12:57.459Z,647.23
2023-03-22T10:13:57.455Z,645.19
2023-03-22T10:14:57.458Z,639.01
2023-03-22T10:15:57.513Z,640.81
2023-03-22T10:16:57.460Z,642.34
2023-03-22T10:17:57.389Z,647.10
2023-03-22T10:18:57.417Z,647.61
2023-03-22T10:19:57.639Z,645.49
2023-03-22T10:20:57.451Z,642.79
2023-03-22T10:21:57.372Z,642.10
2023-03-22T10:22:57.354Z,641.87
2023-03-22T10:23:57.380Z,643.92
2023-03-22T10:24:57.367Z,642.97
2023-03-22T10:25:57.299Z,642.22
2023-03-22T10:26:57.542Z,642.23
2023-03-22T10:27:57.997Z,643.16
2023-03-22T10:28:57.413Z,645.07
2023-03-22T10:29:57.276Z,643.85
2023-03-22T10:30:57.263Z,647.13
2023-03-22T10:31:57.320Z,645.67
2023-03-22T10:32:58.311Z,644.34
2023-03-22T10:33:57.269Z,642.32
2023-03-22T10:34:57.228Z,644.04
2023-03-22T10:35:57.256Z,647.19
2023-03-22T10:36:57.177Z,649.37
2023-03-22T10:37:57.354Z,650.29
2023-03-22T10:38:57.200Z,648.59
2023-03-22T10:39:57.201Z,646.39
2023-03-22T10:40:57.165Z,643.77
2023-03-22T10:41:58.177Z,646.94
2023-03-22T10:42:57.222Z,647.00
2023-03-22T10:43:57.155Z,647.04
2023-03-22T10:44:57.118Z,647.43
2023-03-22T10:45:57.085Z,648.67
2023-03-22T10:46:57.126Z,652.32
2023-03-22T10:48:04.857Z,656.06
2023-03-22T10:48:57.100Z,660.36
2023-03-22T10:49:57.139Z,656.66
2023-03-22T10:50:57.022Z,655.72
2023-03-22T10:51:57.012Z,656.58
2023-03-22T10:52:57.010Z,658.59
2023-03-22T10:53:56.995Z,655.60
2023-03-22T10:55:00.808Z,656.00
2023-03-22T10:55:56.975Z,657.25
2023-03-22T10:56:56.980Z,656.05
2023-03-22T10:57:56.938Z,654.24
2023-03-22T10:58:56.959Z,651.84
2023-03-22T10:59:56.919Z,654.87
2023-03-22T11:00:57.199Z,655.27
2023-03-22T11:01:57.193Z,658.54
2023-03-22T11:02:56.993Z,658.40
2023-03-22T11:03:57.027Z,658.91
2023-03-22T11:04:56.885Z,657.48
2023-03-22T11:05:56.867Z,659.69
2023-03-22T11:06:56.857Z,660.38
2023-03-22T11:07:56.834Z,656.96
2023-03-22T11:08:56.842Z,656.79
2023-03-22T11:09:56.808Z,659.39
2023-03-22T11:10:56.877Z,658.71
2023-03-22T11:11:56.814Z,658.53
2023-03-22T11:12:56.823Z,663.87
2023-03-22T11:13:56.770Z,655.83
2023-03-22T11:14:56.815Z,655.48
2023-03-22T11:15:56.786Z,654.63
2023-03-22T11:16:57.437Z,655.78
2023-03-22T11:17:56.751Z,657.90
2023-03-22T11:18:56.710Z,659.12
2023-03-22T11:19:56.750Z,662.07
2023-03-22T11:20:56.708Z,662.67
2023-03-22T11:21:56.745Z,664.21
2023-03-22T11:22:56.666Z,663.02
2023-03-22T11:23:56.772Z,663.46
2023-03-22T11:24:56.681Z,663.75
2023-03-22T11:25:56.644Z,666.05
2023-03-22T11:26:56.617Z,666.54
2023-03-22T11:27:56.608Z,666.51
2023-03-22T11:28:56.715Z,667.09
2023-03-22T11:29:56.607Z,669.86
2023-03-22T11:30:56.613Z,666.36
2023-03-22T11:31:56.590Z,666.95
2023-03-22T11:32:56.630Z,666.12
2023-03-22T11:33:56.730Z,669.86
2023-03-22T11:34:56.574Z,667.28
2023-03-22T11:35:56.795Z,668.74
2023-03-22T11:36:56.566Z,671.02
2023-03-22T11:37:56.506Z,669.49
2023-03-22T11:38:56.519Z,666.71
2023-03-22T11:39:56.479Z,668.15
2023-03-22T11:40:56.468Z,667.18
2023-03-22T11:41:56.910Z,665.93
2023-03-22T11:42:56.440Z,667.69
2023-03-22T11:43:56.512Z,669.38
2023-03-22T11:44:56.437Z,667.07
2023-03-22T11:45:56.475Z,664.46
2023-03-22T11:46:56.678Z,664.62
2023-03-22T11:47:56.444Z,664.39
2023-03-22T11:48:57.330Z,660.18
2023-03-22T11:49:56.359Z,653.46
2023-03-22T11:50:56.366Z,649.89
2023-03-22T11:51:56.376Z,651.43
2023-03-22T11:52:56.329Z,655.16
2023-03-22T11:53:56.313Z,652.98
2023-03-22T11:54:56.411Z,652.93
2023-03-22T11:55:56.307Z,656.19
2023-03-22T11:56:56.338Z,656.60
2023-03-22T11:57:56.269Z,660.64
2023-03-22T11:58:56.829Z,664.18
2023-03-22T11:59:56.263Z,665.07
2023-03-22T12:00:56.252Z,664.95
2023-03-22T12:01:56.236Z,664.19
2023-03-22T12:02:56.422Z,665.25
2023-03-22T12:03:56.405Z,663.22
2023-03-22T12:04:56.270Z,665.82
2023-03-22T12:05:56.236Z,664.26
2023-03-22T12:06:56.188Z,667.66
2023-03-22T12:07:56.196Z,663.58
2023-03-22T12:08:56.501Z,665.79
2023-03-22T12:09:57.514Z,667.82
2023-03-22T12:10:56.140Z,667.97
2023-03-22T12:11:56.119Z,666.50
2023-03-22T12:12:56.126Z,669.49
2023-03-22T12:13:56.111Z,669.89
2023-03-22T12:14:56.121Z,675.68
2023-03-22T12:15:56.091Z,670.72
2023-03-22T12:16:56.071Z,672.77
2023-03-22T12:17:56.191Z,675.08
2023-03-22T12:18:56.072Z,677.39
2023-03-22T12:19:56.099Z,679.34
2023-03-22T12:20:57.312Z,680.80
2023-03-22T12:21:56.016Z,676.61
2023-03-22T12:22:56.240Z,680.36
2023-03-22T12:23:56.094Z,679.03
2023-03-22T12:24:55.979Z,683.12
2023-03-22T12:25:56.000Z,688.49
2023-03-22T12:26:55.962Z,683.39
2023-03-22T12:27:55.971Z,680.84